sensor_id;sensor_type;location;lat;lon;timestamp;P1;durP1;ratioP1;P2;durP2;ratioP2
63444;SDS011;49573;47.682;9.170;2023-12-22T00:00:06;1.13;;;0.70;;
63444;SDS011;49573;47.682;9.170;2023-12-22T00:02:53;1.80;;;1.00;;
63444;SDS011;49573;47.682;9.170;2023-12-22T00:05:40;2.92;;;0.93;;
63444;SDS011;49573;47.682;9.170;2023-12-22T00:08:26;1.58;;;0.95;;
63444;SDS011;49573;47.682;9.170;2023-12-22T00:11:12;2.22;;;0.82;;
63444;SDS011;49573;47.682;9.170;2023-12-22T00:13:58;3.13;;;1.30;;
63444;SDS011;49573;47.682;9.170;2023-12-22T00:16:44;2.92;;;1.20;;
63444;SDS011;49573;47.682;9.170;2023-12-22T00:19:31;1.53;;;1.00;;
63444;SDS011;49573;47.682;9.170;2023-12-22T00:22:18;2.33;;;1.20;;
63444;SDS011;49573;47.682;9.170;2023-12-22T00:25:04;2.67;;;1.23;;
63444;SDS011;49573;47.682;9.170;2023-12-22T00:27:52;3.20;;;1.05;;
63444;SDS011;49573;47.682;9.170;2023-12-22T00:30:38;4.13;;;1.33;;
63444;SDS011;49573;47.682;9.170;2023-12-22T00:33:24;2.10;;;0.90;;
63444;SDS011;49573;47.682;9.170;2023-12-22T00:36:11;1.60;;;0.90;;
63444;SDS011;49573;47.682;9.170;2023-12-22T00:38:58;2.63;;;1.20;;
63444;SDS011;49573;47.682;9.170;2023-12-22T00:41:44;3.53;;;1.20;;
63444;SDS011;49573;47.682;9.170;2023-12-22T00:44:30;3.22;;;0.90;;
63444;SDS011;49573;47.682;9.170;2023-12-22T00:47:17;3.00;;;1.23;;
63444;SDS011;49573;47.682;9.170;2023-12-22T00:50:03;3.42;;;1.20;;
63444;SDS011;49573;47.682;9.170;2023-12-22T00:52:50;1.15;;;0.68;;
63444;SDS011;49573;47.682;9.170;2023-12-22T00:55:38;1.25;;;1.02;;
63444;SDS011;49573;47.682;9.170;2023-12-22T00:58:24;1.85;;;0.80;;
63444;SDS011;49573;47.682;9.170;2023-12-22T01:01:10;1.45;;;0.60;;
63444;SDS011;49573;47.682;9.170;2023-12-22T01:03:56;2.88;;;0.98;;
63444;SDS011;49573;47.682;9.170;2023-12-22T01:06:42;1.85;;;0.93;;
63444;SDS011;49573;47.682;9.170;2023-12-22T01:09:28;0.90;;;0.50;;
63444;SDS011;49573;47.682;9.170;2023-12-22T01:12:15;0.82;;;0.57;;
63444;SDS011;49573;47.682;9.170;2023-12-22T01:15:01;2.05;;;0.57;;
63444;SDS011;49573;47.682;9.170;2023-12-22T01:17:48;1.60;;;0.60;;
63444;SDS011;49573;47.682;9.170;2023-12-22T01:20:34;2.47;;;0.80;;
63444;SDS011;49573;47.682;9.170;2023-12-22T01:23:20;1.25;;;0.47;;
63444;SDS011;49573;47.682;9.170;2023-12-22T01:26:06;2.38;;;0.60;;
63444;SDS011;49573;47.682;9.170;2023-12-22T01:28:53;1.10;;;0.70;;
63444;SDS011;49573;47.682;9.170;2023-12-22T01:31:39;3.55;;;1.05;;
63444;SDS011;49573;47.682;9.170;2023-12-22T01:34:25;1.85;;;0.90;;
63444;SDS011;49573;47.682;9.170;2023-12-22T01:37:11;1.50;;;0.60;;
63444;SDS011;49573;47.682;9.170;2023-12-22T01:39:57;2.08;;;1.10;;
63444;SDS011;49573;47.682;9.170;2023-12-22T01:42:43;1.45;;;0.70;;
63444;SDS011;49573;47.682;9.170;2023-12-22T01:45:32;1.30;;;0.60;;
63444;SDS011;49573;47.682;9.170;2023-12-22T01:48:18;1.67;;;0.60;;
63444;SDS011;49573;47.682;9.170;2023-12-22T01:51:04;0.82;;;0.63;;
63444;SDS011;49573;47.682;9.170;2023-12-22T01:53:52;1.38;;;0.73;;
63444;SDS011;49573;47.682;9.170;2023-12-22T01:56:38;1.67;;;0.55;;
63444;SDS011;49573;47.682;9.170;2023-12-22T01:59:24;2.50;;;0.95;;
63444;SDS011;49573;47.682;9.170;2023-12-22T02:02:12;1.55;;;0.57;;
63444;SDS011;49573;47.682;9.170;2023-12-22T02:04:58;1.05;;;0.63;;
63444;SDS011;49573;47.682;9.170;2023-12-22T02:07:44;2.78;;;0.65;;
63444;SDS011;49573;47.682;9.170;2023-12-22T02:10:31;1.38;;;0.70;;
63444;SDS011;49573;47.682;9.170;2023-12-22T02:13:17;1.17;;;0.88;;
63444;SDS011;49573;47.682;9.170;2023-12-22T02:16:04;3.17;;;0.70;;
63444;SDS011;49573;47.682;9.170;2023-12-22T02:19:00;3.67;;;1.10;;
63444;SDS011;49573;47.682;9.170;2023-12-22T02:22:02;1.70;;;0.50;;
63444;SDS011;49573;47.682;9.170;2023-12-22T02:24:51;2.67;;;0.80;;
63444;SDS011;49573;47.682;9.170;2023-12-22T02:27:38;1.58;;;0.70;;
63444;SDS011;49573;47.682;9.170;2023-12-22T02:30:31;2.88;;;1.08;;
63444;SDS011;49573;47.682;9.170;2023-12-22T02:33:20;1.75;;;0.73;;
63444;SDS011;49573;47.682;9.170;2023-12-22T02:36:08;0.75;;;0.63;;
63444;SDS011;49573;47.682;9.170;2023-12-22T02:38:55;1.88;;;0.77;;
63444;SDS011;49573;47.682;9.170;2023-12-22T02:41:44;2.25;;;1.05;;
63444;SDS011;49573;47.682;9.170;2023-12-22T02:44:31;3.67;;;1.13;;
63444;SDS011;49573;47.682;9.170;2023-12-22T02:47:18;2.85;;;1.13;;
63444;SDS011;49573;47.682;9.170;2023-12-22T02:50:04;2.30;;;0.88;;
63444;SDS011;49573;47.682;9.170;2023-12-22T02:52:51;3.92;;;1.35;;
63444;SDS011;49573;47.682;9.170;2023-12-22T02:55:37;5.90;;;1.70;;
63444;SDS011;49573;47.682;9.170;2023-12-22T02:58:24;5.53;;;1.17;;
63444;SDS011;49573;47.682;9.170;2023-12-22T03:01:10;3.58;;;1.50;;
63444;SDS011;49573;47.682;9.170;2023-12-22T03:03:56;3.13;;;1.10;;
63444;SDS011;49573;47.682;9.170;2023-12-22T03:06:42;3.47;;;1.42;;
63444;SDS011;49573;47.682;9.170;2023-12-22T03:09:28;3.45;;;1.10;;
63444;SDS011;49573;47.682;9.170;2023-12-22T03:12:14;2.25;;;1.23;;
63444;SDS011;49573;47.682;9.170;2023-12-22T03:15:02;5.20;;;1.50;;
63444;SDS011;49573;47.682;9.170;2023-12-22T03:17:48;4.85;;;1.30;;
63444;SDS011;49573;47.682;9.170;2023-12-22T03:20:34;3.53;;;1.40;;
63444;SDS011;49573;47.682;9.170;2023-12-22T03:23:20;3.85;;;1.20;;
63444;SDS011;49573;47.682;9.170;2023-12-22T03:26:06;4.50;;;1.35;;
63444;SDS011;49573;47.682;9.170;2023-12-22T03:28:52;4.32;;;1.35;;
63444;SDS011;49573;47.682;9.170;2023-12-22T03:31:40;3.63;;;1.13;;
63444;SDS011;49573;47.682;9.170;2023-12-22T03:34:26;4.90;;;1.48;;
63444;SDS011;49573;47.682;9.170;2023-12-22T03:37:12;3.70;;;1.42;;
63444;SDS011;49573;47.682;9.170;2023-12-22T03:39:58;5.82;;;1.38;;
63444;SDS011;49573;47.682;9.170;2023-12-22T03:42:44;2.35;;;0.93;;
63444;SDS011;49573;47.682;9.170;2023-12-22T03:45:30;5.60;;;1.40;;
63444;SDS011;49573;47.682;9.170;2023-12-22T03:48:17;5.03;;;1.60;;
63444;SDS011;49573;47.682;9.170;2023-12-22T03:51:03;4.75;;;1.58;;
63444;SDS011;49573;47.682;9.170;2023-12-22T03:53:49;4.93;;;1.20;;
63444;SDS011;49573;47.682;9.170;2023-12-22T03:56:36;3.60;;;1.25;;
63444;SDS011;49573;47.682;9.170;2023-12-22T03:59:22;5.05;;;1.40;;
63444;SDS011;49573;47.682;9.170;2023-12-22T04:02:08;5.18;;;1.50;;
63444;SDS011;49573;47.682;9.170;2023-12-22T04:04:55;2.17;;;1.00;;
63444;SDS011;49573;47.682;9.170;2023-12-22T04:07:41;2.67;;;1.25;;
63444;SDS011;49573;47.682;9.170;2023-12-22T04:10:27;3.00;;;1.20;;
63444;SDS011;49573;47.682;9.170;2023-12-22T04:13:13;1.90;;;0.70;;
63444;SDS011;49573;47.682;9.170;2023-12-22T04:15:59;4.28;;;1.10;;
63444;SDS011;49573;47.682;9.170;2023-12-22T04:18:45;2.22;;;1.15;;
63444;SDS011;49573;47.682;9.170;2023-12-22T04:21:33;2.17;;;0.65;;
63444;SDS011;49573;47.682;9.170;2023-12-22T04:24:19;3.85;;;0.80;;
63444;SDS011;49573;47.682;9.170;2023-12-22T04:27:05;1.38;;;0.63;;
63444;SDS011;49573;47.682;9.170;2023-12-22T04:29:51;2.88;;;1.00;;
63444;SDS011;49573;47.682;9.170;2023-12-22T04:32:37;2.15;;;0.80;;
63444;SDS011;49573;47.682;9.170;2023-12-22T04:35:23;2.67;;;0.85;;
63444;SDS011;49573;47.682;9.170;2023-12-22T04:38:10;1.83;;;0.90;;
63444;SDS011;49573;47.682;9.170;2023-12-22T04:40:56;1.40;;;0.75;;
63444;SDS011;49573;47.682;9.170;2023-12-22T04:43:42;2.45;;;1.40;;
63444;SDS011;49573;47.682;9.170;2023-12-22T04:46:28;2.10;;;0.77;;
63444;SDS011;49573;47.682;9.170;2023-12-22T04:49:14;1.77;;;0.63;;
63444;SDS011;49573;47.682;9.170;2023-12-22T04:52:00;1.77;;;0.70;;
63444;SDS011;49573;47.682;9.170;2023-12-22T04:54:47;1.75;;;0.90;;
63444;SDS011;49573;47.682;9.170;2023-12-22T04:57:34;2.83;;;0.65;;
63444;SDS011;49573;47.682;9.170;2023-12-22T05:00:20;1.33;;;0.73;;
63444;SDS011;49573;47.682;9.170;2023-12-22T05:03:06;2.73;;;0.80;;
63444;SDS011;49573;47.682;9.170;2023-12-22T05:05:52;1.75;;;0.65;;
63444;SDS011;49573;47.682;9.170;2023-12-22T05:08:38;1.75;;;0.50;;
63444;SDS011;49573;47.682;9.170;2023-12-22T05:11:25;2.17;;;1.00;;
63444;SDS011;49573;47.682;9.170;2023-12-22T05:14:11;3.00;;;1.00;;
63444;SDS011;49573;47.682;9.170;2023-12-22T05:16:57;3.20;;;1.20;;
63444;SDS011;49573;47.682;9.170;2023-12-22T05:19:43;2.60;;;0.80;;
63444;SDS011;49573;47.682;9.170;2023-12-22T05:22:29;1.02;;;0.50;;
63444;SDS011;49573;47.682;9.170;2023-12-22T05:25:16;4.20;;;1.27;;
63444;SDS011;49573;47.682;9.170;2023-12-22T05:28:04;2.00;;;1.03;;
63444;SDS011;49573;47.682;9.170;2023-12-22T05:30:50;2.17;;;0.80;;
63444;SDS011;49573;47.682;9.170;2023-12-22T05:33:36;3.13;;;1.15;;
63444;SDS011;49573;47.682;9.170;2023-12-22T05:36:22;3.72;;;0.85;;
63444;SDS011;49573;47.682;9.170;2023-12-22T05:39:08;2.00;;;0.80;;
63444;SDS011;49573;47.682;9.170;2023-12-22T05:44:43;1.67;;;0.75;;
63444;SDS011;49573;47.682;9.170;2023-12-22T05:47:29;3.13;;;0.82;;
63444;SDS011;49573;47.682;9.170;2023-12-22T05:50:15;2.05;;;0.75;;
63444;SDS011;49573;47.682;9.170;2023-12-22T05:53:02;4.28;;;1.10;;
63444;SDS011;49573;47.682;9.170;2023-12-22T05:55:48;4.47;;;1.03;;
63444;SDS011;49573;47.682;9.170;2023-12-22T05:58:34;2.42;;;1.10;;
63444;SDS011;49573;47.682;9.170;2023-12-22T06:01:21;1.75;;;0.80;;
63444;SDS011;49573;47.682;9.170;2023-12-22T06:04:07;2.30;;;0.95;;
63444;SDS011;49573;47.682;9.170;2023-12-22T06:06:53;2.47;;;1.20;;
63444;SDS011;49573;47.682;9.170;2023-12-22T06:09:39;3.22;;;1.30;;
63444;SDS011;49573;47.682;9.170;2023-12-22T06:12:26;3.23;;;0.97;;
63444;SDS011;49573;47.682;9.170;2023-12-22T06:15:12;4.20;;;1.30;;
63444;SDS011;49573;47.682;9.170;2023-12-22T06:17:59;4.67;;;1.50;;
63444;SDS011;49573;47.682;9.170;2023-12-22T06:20:45;6.22;;;1.38;;
63444;SDS011;49573;47.682;9.170;2023-12-22T06:23:31;4.38;;;1.48;;
63444;SDS011;49573;47.682;9.170;2023-12-22T06:26:17;5.43;;;1.70;;
63444;SDS011;49573;47.682;9.170;2023-12-22T06:29:03;3.95;;;1.48;;
63444;SDS011;49573;47.682;9.170;2023-12-22T06:31:49;6.25;;;1.42;;
63444;SDS011;49573;47.682;9.170;2023-12-22T06:34:37;7.27;;;2.20;;
63444;SDS011;49573;47.682;9.170;2023-12-22T06:37:23;6.95;;;2.05;;
63444;SDS011;49573;47.682;9.170;2023-12-22T06:40:09;7.20;;;1.75;;
63444;SDS011;49573;47.682;9.170;2023-12-22T06:42:56;5.53;;;1.40;;
63444;SDS011;49573;47.682;9.170;2023-12-22T06:45:42;6.63;;;2.47;;
63444;SDS011;49573;47.682;9.170;2023-12-22T06:48:28;7.43;;;2.00;;
63444;SDS011;49573;47.682;9.170;2023-12-22T06:51:19;6.53;;;2.00;;
63444;SDS011;49573;47.682;9.170;2023-12-22T06:54:06;4.97;;;2.00;;
63444;SDS011;49573;47.682;9.170;2023-12-22T06:56:52;6.07;;;2.10;;
63444;SDS011;49573;47.682;9.170;2023-12-22T06:59:38;6.78;;;2.08;;
63444;SDS011;49573;47.682;9.170;2023-12-22T07:02:24;10.32;;;2.58;;
63444;SDS011;49573;47.682;9.170;2023-12-22T07:05:30;10.40;;;2.10;;
63444;SDS011;49573;47.682;9.170;2023-12-22T07:08:22;7.53;;;2.17;;
63444;SDS011;49573;47.682;9.170;2023-12-22T07:11:09;5.20;;;1.88;;
63444;SDS011;49573;47.682;9.170;2023-12-22T07:13:55;6.47;;;2.05;;
63444;SDS011;49573;47.682;9.170;2023-12-22T07:16:46;4.80;;;2.28;;
63444;SDS011;49573;47.682;9.170;2023-12-22T07:19:34;12.68;;;2.88;;
63444;SDS011;49573;47.682;9.170;2023-12-22T07:22:20;5.85;;;2.13;;
63444;SDS011;49573;47.682;9.170;2023-12-22T07:25:08;4.28;;;1.60;;
63444;SDS011;49573;47.682;9.170;2023-12-22T07:27:54;6.00;;;2.10;;
63444;SDS011;49573;47.682;9.170;2023-12-22T07:30:40;6.03;;;1.90;;
63444;SDS011;49573;47.682;9.170;2023-12-22T07:33:27;7.60;;;1.90;;
63444;SDS011;49573;47.682;9.170;2023-12-22T07:36:13;5.25;;;1.80;;
63444;SDS011;49573;47.682;9.170;2023-12-22T07:38:59;8.48;;;1.95;;
63444;SDS011;49573;47.682;9.170;2023-12-22T07:41:47;3.73;;;1.50;;
63444;SDS011;49573;47.682;9.170;2023-12-22T07:44:33;8.52;;;2.40;;
63444;SDS011;49573;47.682;9.170;2023-12-22T07:47:19;6.97;;;1.63;;
63444;SDS011;49573;47.682;9.170;2023-12-22T07:50:06;5.97;;;2.08;;
63444;SDS011;49573;47.682;9.170;2023-12-22T07:52:53;6.50;;;1.55;;
63444;SDS011;49573;47.682;9.170;2023-12-22T07:55:40;4.30;;;1.70;;
63444;SDS011;49573;47.682;9.170;2023-12-22T07:58:27;3.90;;;1.70;;
63444;SDS011;49573;47.682;9.170;2023-12-22T08:01:13;7.45;;;2.15;;
63444;SDS011;49573;47.682;9.170;2023-12-22T08:06:46;7.00;;;2.05;;
63444;SDS011;49573;47.682;9.170;2023-12-22T08:09:32;4.20;;;1.65;;
63444;SDS011;49573;47.682;9.170;2023-12-22T08:12:18;5.00;;;1.88;;
63444;SDS011;49573;47.682;9.170;2023-12-22T08:15:07;4.47;;;1.80;;
63444;SDS011;49573;47.682;9.170;2023-12-22T08:17:56;11.77;;;2.10;;
63444;SDS011;49573;47.682;9.170;2023-12-22T08:20:42;7.43;;;2.05;;
63444;SDS011;49573;47.682;9.170;2023-12-22T08:23:28;10.45;;;1.67;;
63444;SDS011;49573;47.682;9.170;2023-12-22T08:26:14;7.03;;;2.05;;
63444;SDS011;49573;47.682;9.170;2023-12-22T08:28:54;9.40;;;2.15;;
63444;SDS011;49573;47.682;9.170;2023-12-22T08:31:41;10.13;;;1.90;;
63444;SDS011;49573;47.682;9.170;2023-12-22T08:34:29;7.00;;;1.80;;
63444;SDS011;49573;47.682;9.170;2023-12-22T08:37:15;5.60;;;1.65;;
63444;SDS011;49573;47.682;9.170;2023-12-22T08:40:01;6.07;;;1.80;;
63444;SDS011;49573;47.682;9.170;2023-12-22T08:42:47;5.43;;;1.80;;
63444;SDS011;49573;47.682;9.170;2023-12-22T08:45:33;6.43;;;1.90;;
63444;SDS011;49573;47.682;9.170;2023-12-22T08:48:21;5.10;;;1.80;;
63444;SDS011;49573;47.682;9.170;2023-12-22T08:51:07;7.57;;;1.88;;
63444;SDS011;49573;47.682;9.170;2023-12-22T08:53:53;6.68;;;1.83;;
63444;SDS011;49573;47.682;9.170;2023-12-22T08:56:40;8.02;;;1.70;;
63444;SDS011;49573;47.682;9.170;2023-12-22T08:59:26;2.77;;;1.40;;
63444;SDS011;49573;47.682;9.170;2023-12-22T09:02:12;8.45;;;1.60;;
63444;SDS011;49573;47.682;9.170;2023-12-22T09:04:59;7.25;;;2.17;;
63444;SDS011;49573;47.682;9.170;2023-12-22T09:07:45;7.43;;;2.20;;
63444;SDS011;49573;47.682;9.170;2023-12-22T09:10:31;7.32;;;1.52;;
63444;SDS011;49573;47.682;9.170;2023-12-22T09:13:18;5.35;;;1.73;;
63444;SDS011;49573;47.682;9.170;2023-12-22T09:16:04;5.32;;;1.50;;
63444;SDS011;49573;47.682;9.170;2023-12-22T09:18:50;7.43;;;2.22;;
63444;SDS011;49573;47.682;9.170;2023-12-22T09:21:38;5.13;;;1.93;;
63444;SDS011;49573;47.682;9.170;2023-12-22T09:24:24;6.13;;;1.60;;
63444;SDS011;49573;47.682;9.170;2023-12-22T09:27:11;10.45;;;2.05;;
63444;SDS011;49573;47.682;9.170;2023-12-22T09:29:57;4.68;;;2.08;;
63444;SDS011;49573;47.682;9.170;2023-12-22T09:32:33;8.13;;;1.70;;
63444;SDS011;49573;47.682;9.170;2023-12-22T09:35:20;7.43;;;2.30;;
63444;SDS011;49573;47.682;9.170;2023-12-22T09:38:08;5.82;;;2.20;;
63444;SDS011;49573;47.682;9.170;2023-12-22T09:40:55;6.68;;;1.80;;
63444;SDS011;49573;47.682;9.170;2023-12-22T09:43:41;7.95;;;1.90;;
63444;SDS011;49573;47.682;9.170;2023-12-22T09:46:30;8.35;;;2.08;;
63444;SDS011;49573;47.682;9.170;2023-12-22T09:49:20;6.07;;;2.25;;
63444;SDS011;49573;47.682;9.170;2023-12-22T09:52:07;9.50;;;2.40;;
63444;SDS011;49573;47.682;9.170;2023-12-22T09:54:55;7.82;;;2.40;;
63444;SDS011;49573;47.682;9.170;2023-12-22T09:57:42;6.85;;;2.03;;
63444;SDS011;49573;47.682;9.170;2023-12-22T10:00:28;8.25;;;2.83;;
63444;SDS011;49573;47.682;9.170;2023-12-22T10:03:16;6.55;;;2.03;;
63444;SDS011;49573;47.682;9.170;2023-12-22T10:06:06;9.10;;;2.97;;
63444;SDS011;49573;47.682;9.170;2023-12-22T10:08:52;10.90;;;2.60;;
63444;SDS011;49573;47.682;9.170;2023-12-22T10:11:40;9.40;;;2.25;;
63444;SDS011;49573;47.682;9.170;2023-12-22T10:14:28;5.80;;;2.05;;
63444;SDS011;49573;47.682;9.170;2023-12-22T10:17:16;8.68;;;2.65;;
63444;SDS011;49573;47.682;9.170;2023-12-22T10:20:03;8.35;;;2.17;;
63444;SDS011;49573;47.682;9.170;2023-12-22T10:22:50;7.60;;;2.60;;
63444;SDS011;49573;47.682;9.170;2023-12-22T10:25:36;6.63;;;2.15;;
63444;SDS011;49573;47.682;9.170;2023-12-22T10:28:28;8.35;;;2.17;;
63444;SDS011;49573;47.682;9.170;2023-12-22T10:31:14;8.43;;;1.95;;
63444;SDS011;49573;47.682;9.170;2023-12-22T10:34:00;5.75;;;1.80;;
63444;SDS011;49573;47.682;9.170;2023-12-22T10:36:46;5.22;;;1.75;;
63444;SDS011;49573;47.682;9.170;2023-12-22T10:39:32;10.43;;;2.78;;
63444;SDS011;49573;47.682;9.170;2023-12-22T10:42:18;8.10;;;2.08;;
63444;SDS011;49573;47.682;9.170;2023-12-22T10:45:06;7.82;;;1.77;;
63444;SDS011;49573;47.682;9.170;2023-12-22T10:47:53;8.30;;;2.10;;
63444;SDS011;49573;47.682;9.170;2023-12-22T10:50:39;9.18;;;1.80;;
63444;SDS011;49573;47.682;9.170;2023-12-22T10:53:26;9.20;;;2.35;;
63444;SDS011;49573;47.682;9.170;2023-12-22T10:56:12;8.07;;;2.20;;
63444;SDS011;49573;47.682;9.170;2023-12-22T10:58:58;5.53;;;1.67;;
63444;SDS011;49573;47.682;9.170;2023-12-22T11:01:46;5.75;;;1.95;;
63444;SDS011;49573;47.682;9.170;2023-12-22T11:04:36;6.32;;;2.15;;
63444;SDS011;49573;47.682;9.170;2023-12-22T11:07:23;8.32;;;2.28;;
63444;SDS011;49573;47.682;9.170;2023-12-22T11:10:12;5.97;;;2.55;;
63444;SDS011;49573;47.682;9.170;2023-12-22T11:15:45;8.77;;;2.47;;
63444;SDS011;49573;47.682;9.170;2023-12-22T11:18:34;7.35;;;1.60;;
63444;SDS011;49573;47.682;9.170;2023-12-22T11:21:22;5.82;;;1.45;;
63444;SDS011;49573;47.682;9.170;2023-12-22T11:24:09;2.58;;;1.30;;
63444;SDS011;49573;47.682;9.170;2023-12-22T11:26:58;4.90;;;1.48;;
63444;SDS011;49573;47.682;9.170;2023-12-22T11:29:47;6.28;;;1.60;;
63444;SDS011;49573;47.682;9.170;2023-12-22T11:32:37;6.20;;;1.63;;
63444;SDS011;49573;47.682;9.170;2023-12-22T11:35:27;5.20;;;1.55;;
63444;SDS011;49573;47.682;9.170;2023-12-22T11:38:14;5.78;;;2.33;;
63444;SDS011;49573;47.682;9.170;2023-12-22T11:41:00;6.78;;;2.30;;
63444;SDS011;49573;47.682;9.170;2023-12-22T11:43:48;4.70;;;1.73;;
63444;SDS011;49573;47.682;9.170;2023-12-22T11:46:36;5.55;;;1.83;;
63444;SDS011;49573;47.682;9.170;2023-12-22T11:49:30;6.25;;;2.35;;
63444;SDS011;49573;47.682;9.170;2023-12-22T11:52:26;5.85;;;2.20;;
63444;SDS011;49573;47.682;9.170;2023-12-22T11:55:15;7.63;;;2.17;;
63444;SDS011;49573;47.682;9.170;2023-12-22T12:01:18;8.32;;;1.88;;
63444;SDS011;49573;47.682;9.170;2023-12-22T12:04:04;4.53;;;1.65;;
63444;SDS011;49573;47.682;9.170;2023-12-22T12:06:52;6.68;;;1.55;;
63444;SDS011;49573;47.682;9.170;2023-12-22T12:09:45;5.50;;;1.90;;
63444;SDS011;49573;47.682;9.170;2023-12-22T12:12:32;6.82;;;1.80;;
63444;SDS011;49573;47.682;9.170;2023-12-22T12:15:19;5.43;;;1.90;;
63444;SDS011;49573;47.682;9.170;2023-12-22T12:18:10;3.80;;;1.75;;
63444;SDS011;49573;47.682;9.170;2023-12-22T12:20:57;5.03;;;1.70;;
63444;SDS011;49573;47.682;9.170;2023-12-22T12:23:43;5.27;;;1.83;;
63444;SDS011;49573;47.682;9.170;2023-12-22T12:26:31;5.63;;;1.60;;
63444;SDS011;49573;47.682;9.170;2023-12-22T12:29:19;3.28;;;1.20;;
63444;SDS011;49573;47.682;9.170;2023-12-22T12:32:07;3.85;;;1.10;;
63444;SDS011;49573;47.682;9.170;2023-12-22T12:34:53;3.90;;;1.50;;
63444;SDS011;49573;47.682;9.170;2023-12-22T12:37:41;2.72;;;1.05;;
63444;SDS011;49573;47.682;9.170;2023-12-22T12:40:31;3.80;;;1.10;;
63444;SDS011;49573;47.682;9.170;2023-12-22T12:43:20;3.08;;;1.35;;
63444;SDS011;49573;47.682;9.170;2023-12-22T12:46:07;2.03;;;0.95;;
63444;SDS011;49573;47.682;9.170;2023-12-22T12:49:02;2.22;;;0.80;;
63444;SDS011;49573;47.682;9.170;2023-12-22T12:51:49;0.80;;;0.80;;
63444;SDS011;49573;47.682;9.170;2023-12-22T12:54:35;1.40;;;0.82;;
63444;SDS011;49573;47.682;9.170;2023-12-22T12:57:21;2.03;;;0.65;;
63444;SDS011;49573;47.682;9.170;2023-12-22T13:00:09;2.92;;;0.85;;
63444;SDS011;49573;47.682;9.170;2023-12-22T13:02:57;2.00;;;1.00;;
63444;SDS011;49573;47.682;9.170;2023-12-22T13:05:48;1.58;;;0.85;;
63444;SDS011;49573;47.682;9.170;2023-12-22T13:08:34;2.65;;;0.80;;
63444;SDS011;49573;47.682;9.170;2023-12-22T13:11:20;0.88;;;0.60;;
63444;SDS011;49573;47.682;9.170;2023-12-22T13:14:07;1.95;;;0.50;;
63444;SDS011;49573;47.682;9.170;2023-12-22T13:16:55;1.52;;;0.63;;
63444;SDS011;49573;47.682;9.170;2023-12-22T13:19:42;1.27;;;0.90;;
63444;SDS011;49573;47.682;9.170;2023-12-22T13:22:28;1.10;;;0.50;;
63444;SDS011;49573;47.682;9.170;2023-12-22T13:25:14;1.27;;;0.80;;
63444;SDS011;49573;47.682;9.170;2023-12-22T13:28:01;4.00;;;0.75;;
63444;SDS011;49573;47.682;9.170;2023-12-22T13:30:48;0.60;;;0.40;;
63444;SDS011;49573;47.682;9.170;2023-12-22T13:33:35;1.42;;;0.88;;
63444;SDS011;49573;47.682;9.170;2023-12-22T13:36:21;1.13;;;0.68;;
63444;SDS011;49573;47.682;9.170;2023-12-22T13:39:08;1.20;;;0.75;;
63444;SDS011;49573;47.682;9.170;2023-12-22T13:41:55;3.33;;;0.88;;
63444;SDS011;49573;47.682;9.170;2023-12-22T13:44:42;1.27;;;0.50;;
63444;SDS011;49573;47.682;9.170;2023-12-22T13:47:29;2.60;;;0.50;;
63444;SDS011;49573;47.682;9.170;2023-12-22T13:53:07;3.58;;;1.30;;
63444;SDS011;49573;47.682;9.170;2023-12-22T13:55:54;1.45;;;0.57;;
63444;SDS011;49573;47.682;9.170;2023-12-22T13:58:43;2.55;;;1.10;;
63444;SDS011;49573;47.682;9.170;2023-12-22T14:01:30;1.80;;;0.95;;
63444;SDS011;49573;47.682;9.170;2023-12-22T14:04:16;1.95;;;1.00;;
63444;SDS011;49573;47.682;9.170;2023-12-22T14:07:03;1.13;;;0.70;;
63444;SDS011;49573;47.682;9.170;2023-12-22T14:09:49;3.30;;;0.68;;
63444;SDS011;49573;47.682;9.170;2023-12-22T14:12:35;3.03;;;1.63;;
63444;SDS011;49573;47.682;9.170;2023-12-22T14:15:23;2.17;;;1.20;;
63444;SDS011;49573;47.682;9.170;2023-12-22T14:18:09;3.63;;;1.80;;
63444;SDS011;49573;47.682;9.170;2023-12-22T14:20:55;3.90;;;2.38;;
63444;SDS011;49573;47.682;9.170;2023-12-22T14:23:42;2.22;;;0.93;;
63444;SDS011;49573;47.682;9.170;2023-12-22T14:26:28;2.63;;;0.73;;
63444;SDS011;49573;47.682;9.170;2023-12-22T14:29:15;1.05;;;0.60;;
63444;SDS011;49573;47.682;9.170;2023-12-22T14:32:01;0.68;;;0.45;;
63444;SDS011;49573;47.682;9.170;2023-12-22T14:34:47;0.75;;;0.43;;
63444;SDS011;49573;47.682;9.170;2023-12-22T14:37:34;0.70;;;0.45;;
63444;SDS011;49573;47.682;9.170;2023-12-22T14:43:09;0.90;;;0.57;;
63444;SDS011;49573;47.682;9.170;2023-12-22T14:45:55;1.17;;;0.55;;
63444;SDS011;49573;47.682;9.170;2023-12-22T14:48:41;0.90;;;0.60;;
63444;SDS011;49573;47.682;9.170;2023-12-22T14:51:27;0.30;;;0.30;;
63444;SDS011;49573;47.682;9.170;2023-12-22T14:54:13;3.03;;;0.98;;
63444;SDS011;49573;47.682;9.170;2023-12-22T14:57:00;2.22;;;0.70;;
63444;SDS011;49573;47.682;9.170;2023-12-22T14:59:47;1.77;;;1.20;;
63444;SDS011;49573;47.682;9.170;2023-12-22T15:02:33;0.90;;;0.60;;
63444;SDS011;49573;47.682;9.170;2023-12-22T15:05:19;1.60;;;0.88;;
63444;SDS011;49573;47.682;9.170;2023-12-22T15:08:05;1.40;;;1.08;;
63444;SDS011;49573;47.682;9.170;2023-12-22T15:10:52;1.80;;;1.23;;
63444;SDS011;49573;47.682;9.170;2023-12-22T15:13:40;4.15;;;2.00;;
63444;SDS011;49573;47.682;9.170;2023-12-22T15:16:26;1.10;;;0.90;;
63444;SDS011;49573;47.682;9.170;2023-12-22T15:19:12;2.15;;;1.13;;
63444;SDS011;49573;47.682;9.170;2023-12-22T15:21:58;0.30;;;0.30;;
63444;SDS011;49573;47.682;9.170;2023-12-22T15:24:44;1.67;;;1.02;;
63444;SDS011;49573;47.682;9.170;2023-12-22T15:27:30;1.33;;;0.85;;
63444;SDS011;49573;47.682;9.170;2023-12-22T15:30:19;1.40;;;1.00;;
63444;SDS011;49573;47.682;9.170;2023-12-22T15:33:05;1.50;;;0.70;;
63444;SDS011;49573;47.682;9.170;2023-12-22T15:35:53;2.20;;;0.98;;
63444;SDS011;49573;47.682;9.170;2023-12-22T15:38:40;1.95;;;0.90;;
63444;SDS011;49573;47.682;9.170;2023-12-22T15:41:27;2.03;;;0.80;;
63444;SDS011;49573;47.682;9.170;2023-12-22T15:44:14;0.73;;;0.70;;
63444;SDS011;49573;47.682;9.170;2023-12-22T15:47:02;0.80;;;0.70;;
63444;SDS011;49573;47.682;9.170;2023-12-22T15:49:48;1.52;;;0.80;;
63444;SDS011;49573;47.682;9.170;2023-12-22T15:52:34;1.27;;;0.85;;
63444;SDS011;49573;47.682;9.170;2023-12-22T15:55:20;1.67;;;0.80;;
63444;SDS011;49573;47.682;9.170;2023-12-22T15:58:06;1.45;;;0.98;;
63444;SDS011;49573;47.682;9.170;2023-12-22T16:00:52;2.55;;;1.40;;
63444;SDS011;49573;47.682;9.170;2023-12-22T16:03:40;0.90;;;0.57;;
63444;SDS011;49573;47.682;9.170;2023-12-22T16:06:26;1.15;;;0.80;;
63444;SDS011;49573;47.682;9.170;2023-12-22T16:09:12;2.03;;;1.02;;
63444;SDS011;49573;47.682;9.170;2023-12-22T16:11:59;0.75;;;0.60;;
63444;SDS011;49573;47.682;9.170;2023-12-22T16:14:45;0.73;;;0.57;;
63444;SDS011;49573;47.682;9.170;2023-12-22T16:17:31;1.67;;;1.00;;
63444;SDS011;49573;47.682;9.170;2023-12-22T16:20:18;0.50;;;0.50;;
63444;SDS011;49573;47.682;9.170;2023-12-22T16:23:04;0.60;;;0.47;;
63444;SDS011;49573;47.682;9.170;2023-12-22T16:25:51;1.50;;;0.77;;
63444;SDS011;49573;47.682;9.170;2023-12-22T16:28:37;1.88;;;0.77;;
63444;SDS011;49573;47.682;9.170;2023-12-22T16:31:23;0.30;;;0.30;;
63444;SDS011;49573;47.682;9.170;2023-12-22T16:34:09;3.85;;;2.05;;
63444;SDS011;49573;47.682;9.170;2023-12-22T16:36:57;7.72;;;3.63;;
63444;SDS011;49573;47.682;9.170;2023-12-22T16:39:47;1.15;;;0.85;;
63444;SDS011;49573;47.682;9.170;2023-12-22T16:42:35;0.47;;;0.43;;
63444;SDS011;49573;47.682;9.170;2023-12-22T16:45:21;0.50;;;0.40;;
63444;SDS011;49573;47.682;9.170;2023-12-22T16:48:07;1.40;;;1.13;;
63444;SDS011;49573;47.682;9.170;2023-12-22T16:50:53;0.70;;;0.68;;
63444;SDS011;49573;47.682;9.170;2023-12-22T16:53:41;0.70;;;0.45;;
63444;SDS011;49573;47.682;9.170;2023-12-22T16:56:27;1.05;;;0.70;;
63444;SDS011;49573;47.682;9.170;2023-12-22T16:59:13;1.00;;;0.68;;
63444;SDS011;49573;47.682;9.170;2023-12-22T17:01:59;1.27;;;0.50;;